sensor_id;sensor_type;location;lat;lon;timestamp;pressure;altitude;pressure_sealevel;temperature;humidity
48652;BME280;34442;52.362;-1.302;2023-07-02T00:01:40;99644.25;;;14.92;95.89
48652;BME280;34442;52.362;-1.302;2023-07-02T00:04:06;99643.44;;;14.92;94.98
48652;BME280;34442;52.362;-1.302;2023-07-02T00:06:34;99650.78;;;14.96;94.83
48652;BME280;34442;52.362;-1.302;2023-07-02T00:09:09;99657.81;;;14.97;94.12
48652;BME280;34442;52.362;-1.302;2023-07-02T00:11:38;99643.47;;;14.97;93.46
48652;BME280;34442;52.362;-1.302;2023-07-02T00:14:05;99651.81;;;14.90;94.35
48652;BME280;34442;52.362;-1.302;2023-07-02T00:16:30;99646.75;;;14.77;96.09
48652;BME280;34442;52.362;-1.302;2023-07-02T00:19:01;99646.47;;;14.73;95.78
48652;BME280;34442;52.362;-1.302;2023-07-02T00:21:27;99651.34;;;14.76;95.42
48652;BME280;34442;52.362;-1.302;2023-07-02T00:23:56;99654.88;;;14.77;95.08
48652;BME280;34442;52.362;-1.302;2023-07-02T00:26:25;99648.72;;;14.81;94.60
48652;BME280;34442;52.362;-1.302;2023-07-02T00:28:52;99650.91;;;14.84;94.64
48652;BME280;34442;52.362;-1.302;2023-07-02T00:31:18;99650.16;;;14.89;93.66
48652;BME280;34442;52.362;-1.302;2023-07-02T00:33:44;99646.72;;;14.94;93.52
48652;BME280;34442;52.362;-1.302;2023-07-02T00:36:10;99646.41;;;14.90;93.84
48652;BME280;34442;52.362;-1.302;2023-07-02T00:38:44;99648.34;;;14.95;93.64
48652;BME280;34442;52.362;-1.302;2023-07-02T00:41:10;99652.34;;;14.92;93.82
48652;BME280;34442;52.362;-1.302;2023-07-02T00:43:36;99653.16;;;14.93;93.76
48652;BME280;34442;52.362;-1.302;2023-07-02T00:46:04;99656.66;;;14.88;93.87
48652;BME280;34442;52.362;-1.302;2023-07-02T00:48:30;99658.22;;;14.84;93.78
48652;BME280;34442;52.362;-1.302;2023-07-02T00:50:56;99655.78;;;14.82;94.21
48652;BME280;34442;52.362;-1.302;2023-07-02T00:53:22;99660.38;;;14.82;93.99
48652;BME280;34442;52.362;-1.302;2023-07-02T00:55:47;99650.31;;;14.77;94.28
48652;BME280;34442;52.362;-1.302;2023-07-02T00:58:13;99651.03;;;14.73;94.29
48652;BME280;34442;52.362;-1.302;2023-07-02T01:00:41;99650.22;;;14.72;94.70
48652;BME280;34442;52.362;-1.302;2023-07-02T01:03:07;99652.44;;;14.75;94.51
48652;BME280;34442;52.362;-1.302;2023-07-02T01:05:33;99655.41;;;14.74;95.33
48652;BME280;34442;52.362;-1.302;2023-07-02T01:08:07;99657.53;;;14.72;95.14
48652;BME280;34442;52.362;-1.302;2023-07-02T01:10:33;99660.50;;;14.70;95.12
48652;BME280;34442;52.362;-1.302;2023-07-02T01:13:04;99653.44;;;14.69;95.64
48652;BME280;34442;52.362;-1.302;2023-07-02T01:15:32;99654.50;;;14.68;95.79
48652;BME280;34442;52.362;-1.302;2023-07-02T01:17:58;99666.72;;;14.71;96.07
48652;BME280;34442;52.362;-1.302;2023-07-02T01:20:26;99672.41;;;14.69;96.37
48652;BME280;34442;52.362;-1.302;2023-07-02T01:22:57;99661.81;;;14.68;96.72
48652;BME280;34442;52.362;-1.302;2023-07-02T01:25:23;99663.38;;;14.63;97.19
48652;BME280;34442;52.362;-1.302;2023-07-02T01:27:50;99659.31;;;14.61;97.87
48652;BME280;34442;52.362;-1.302;2023-07-02T01:30:16;99662.50;;;14.58;97.82
48652;BME280;34442;52.362;-1.302;2023-07-02T01:32:45;99655.13;;;14.53;98.41
48652;BME280;34442;52.362;-1.302;2023-07-02T01:35:13;99656.44;;;14.51;99.08
48652;BME280;34442;52.362;-1.302;2023-07-02T01:37:39;99666.59;;;14.44;99.48
48652;BME280;34442;52.362;-1.302;2023-07-02T01:40:05;99663.34;;;14.42;99.78
48652;BME280;34442;52.362;-1.302;2023-07-02T01:42:34;99671.94;;;14.38;99.86
48652;BME280;34442;52.362;-1.302;2023-07-02T01:44:59;99672.41;;;14.35;100.00
48652;BME280;34442;52.362;-1.302;2023-07-02T01:47:25;99678.69;;;14.36;100.00
48652;BME280;34442;52.362;-1.302;2023-07-02T01:49:51;99673.28;;;14.36;100.00
48652;BME280;34442;52.362;-1.302;2023-07-02T01:52:17;99684.25;;;14.29;100.00
48652;BME280;34442;52.362;-1.302;2023-07-02T01:54:43;99687.94;;;14.23;100.00
48652;BME280;34442;52.362;-1.302;2023-07-02T01:57:08;99690.47;;;14.30;100.00
48652;BME280;34442;52.362;-1.302;2023-07-02T01:59:37;99688.84;;;14.29;100.00
48652;BME280;34442;52.362;-1.302;2023-07-02T02:02:03;99689.66;;;14.29;100.00
48652;BME280;34442;52.362;-1.302;2023-07-02T02:04:28;99685.56;;;14.27;100.00
48652;BME280;34442;52.362;-1.302;2023-07-02T02:06:53;99687.09;;;14.23;100.00
48652;BME280;34442;52.362;-1.302;2023-07-02T02:09:22;99692.53;;;14.23;100.00
48652;BME280;34442;52.362;-1.302;2023-07-02T02:11:51;99687.03;;;14.18;100.00
48652;BME280;34442;52.362;-1.302;2023-07-02T02:14:18;99685.41;;;14.17;100.00
48652;BME280;34442;52.362;-1.302;2023-07-02T02:16:44;99685.34;;;14.11;100.00
48652;BME280;34442;52.362;-1.302;2023-07-02T02:19:13;99690.16;;;14.09;100.00
48652;BME280;34442;52.362;-1.302;2023-07-02T02:21:41;99695.56;;;14.09;100.00
48652;BME280;34442;52.362;-1.302;2023-07-02T02:24:06;99692.88;;;14.09;100.00
48652;BME280;34442;52.362;-1.302;2023-07-02T02:26:34;99692.06;;;14.09;100.00
48652;BME280;34442;52.362;-1.302;2023-07-02T02:29:00;99695.31;;;14.11;100.00
48652;BME280;34442;52.362;-1.302;2023-07-02T02:31:26;99695.81;;;14.08;100.00
48652;BME280;34442;52.362;-1.302;2023-07-02T02:33:51;99700.63;;;14.06;100.00
48652;BME280;34442;52.362;-1.302;2023-07-02T02:36:17;99695.41;;;13.99;100.00
48652;BME280;34442;52.362;-1.302;2023-07-02T02:38:43;99692.47;;;14.01;100.00
48652;BME280;34442;52.362;-1.302;2023-07-02T02:41:08;99694.50;;;13.94;100.00
48652;BME280;34442;52.362;-1.302;2023-07-02T02:43:34;99700.91;;;13.87;100.00
48652;BME280;34442;52.362;-1.302;2023-07-02T02:46:00;99711.44;;;13.89;100.00
48652;BME280;34442;52.362;-1.302;2023-07-02T02:48:25;99705.72;;;13.85;100.00
48652;BME280;34442;52.362;-1.302;2023-07-02T02:50:51;99712.94;;;13.80;100.00
48652;BME280;34442;52.362;-1.302;2023-07-02T02:53:17;99700.97;;;13.76;100.00
48652;BME280;34442;52.362;-1.302;2023-07-02T02:55:42;99704.06;;;13.68;100.00
48652;BME280;34442;52.362;-1.302;2023-07-02T02:58:08;99713.47;;;13.65;100.00
48652;BME280;34442;52.362;-1.302;2023-07-02T03:00:33;99712.44;;;13.66;100.00
48652;BME280;34442;52.362;-1.302;2023-07-02T03:02:59;99710.19;;;13.63;100.00
48652;BME280;34442;52.362;-1.302;2023-07-02T03:05:24;99711.16;;;13.57;100.00
48652;BME280;34442;52.362;-1.302;2023-07-02T03:07:50;99713.31;;;13.55;100.00
48652;BME280;34442;52.362;-1.302;2023-07-02T03:10:16;99713.31;;;13.55;100.00
48652;BME280;34442;52.362;-1.302;2023-07-02T03:12:41;99714.59;;;13.52;100.00
48652;BME280;34442;52.362;-1.302;2023-07-02T03:15:07;99719.56;;;13.44;100.00
48652;BME280;34442;52.362;-1.302;2023-07-02T03:17:34;99717.13;;;13.42;100.00
48652;BME280;34442;52.362;-1.302;2023-07-02T03:20:00;99710.31;;;13.39;100.00
48652;BME280;34442;52.362;-1.302;2023-07-02T03:22:25;99718.66;;;13.38;100.00
48652;BME280;34442;52.362;-1.302;2023-07-02T03:24:50;99716.31;;;13.42;100.00
48652;BME280;34442;52.362;-1.302;2023-07-02T03:27:16;99719.47;;;13.38;100.00
48652;BME280;34442;52.362;-1.302;2023-07-02T03:29:41;99725.34;;;13.35;100.00
48652;BME280;34442;52.362;-1.302;2023-07-02T03:32:07;99725.47;;;13.29;100.00
48652;BME280;34442;52.362;-1.302;2023-07-02T03:34:33;99725.38;;;13.24;100.00
48652;BME280;34442;52.362;-1.302;2023-07-02T03:36:58;99739.69;;;13.24;100.00
48652;BME280;34442;52.362;-1.302;2023-07-02T03:39:24;99731.84;;;13.23;100.00
48652;BME280;34442;52.362;-1.302;2023-07-02T03:41:49;99733.09;;;13.20;100.00
48652;BME280;34442;52.362;-1.302;2023-07-02T03:44:15;99735.59;;;13.22;100.00
48652;BME280;34442;52.362;-1.302;2023-07-02T03:46:40;99734.25;;;13.36;100.00
48652;BME280;34442;52.362;-1.302;2023-07-02T03:49:06;99734.50;;;13.34;100.00
48652;BME280;34442;52.362;-1.302;2023-07-02T03:51:31;99732.25;;;13.43;100.00
48652;BME280;34442;52.362;-1.302;2023-07-02T03:53:58;99733.19;;;13.37;100.00
48652;BME280;34442;52.362;-1.302;2023-07-02T03:56:26;99738.94;;;13.40;100.00
48652;BME280;34442;52.362;-1.302;2023-07-02T03:58:54;99740.09;;;13.45;100.00
48652;BME280;34442;52.362;-1.302;2023-07-02T04:01:20;99731.44;;;13.43;100.00
48652;BME280;34442;52.362;-1.302;2023-07-02T04:03:51;99729.06;;;13.46;100.00
48652;BME280;34442;52.362;-1.302;2023-07-02T04:06:17;99723.00;;;13.39;100.00
48652;BME280;34442;52.362;-1.302;2023-07-02T04:08:43;99732.16;;;13.38;100.00
48652;BME280;34442;52.362;-1.302;2023-07-02T04:11:09;99736.97;;;13.36;100.00
48652;BME280;34442;52.362;-1.302;2023-07-02T04:13:34;99736.50;;;13.39;100.00
48652;BME280;34442;52.362;-1.302;2023-07-02T04:16:00;99739.53;;;13.43;100.00
48652;BME280;34442;52.362;-1.302;2023-07-02T04:18:25;99733.53;;;13.40;100.00
48652;BME280;34442;52.362;-1.302;2023-07-02T04:20:50;99735.09;;;13.36;100.00
48652;BME280;34442;52.362;-1.302;2023-07-02T04:23:16;99738.59;;;13.37;100.00
48652;BME280;34442;52.362;-1.302;2023-07-02T04:25:41;99736.16;;;13.35;100.00
48652;BME280;34442;52.362;-1.302;2023-07-02T04:28:07;99732.03;;;13.33;100.00
48652;BME280;34442;52.362;-1.302;2023-07-02T04:30:33;99741.53;;;13.35;100.00
48652;BME280;34442;52.362;-1.302;2023-07-02T04:32:58;99740.53;;;13.25;100.00
48652;BME280;34442;52.362;-1.302;2023-07-02T04:35:23;99733.28;;;13.25;100.00
48652;BME280;34442;52.362;-1.302;2023-07-02T04:37:49;99734.75;;;13.33;100.00
48652;BME280;34442;52.362;-1.302;2023-07-02T04:40:16;99737.31;;;13.39;100.00
48652;BME280;34442;52.362;-1.302;2023-07-02T04:42:42;99747.53;;;13.37;100.00
48652;BME280;34442;52.362;-1.302;2023-07-02T04:45:13;99729.34;;;13.33;100.00
48652;BME280;34442;52.362;-1.302;2023-07-02T04:47:41;99735.69;;;13.38;100.00
48652;BME280;34442;52.362;-1.302;2023-07-02T04:50:07;99741.06;;;13.38;100.00
48652;BME280;34442;52.362;-1.302;2023-07-02T04:52:33;99735.69;;;13.38;100.00
48652;BME280;34442;52.362;-1.302;2023-07-02T04:54:58;99739.91;;;13.34;100.00
48652;BME280;34442;52.362;-1.302;2023-07-02T04:57:24;99745.34;;;13.23;100.00
48652;BME280;34442;52.362;-1.302;2023-07-02T04:59:49;99747.19;;;13.34;100.00
48652;BME280;34442;52.362;-1.302;2023-07-02T05:02:15;99743.44;;;13.35;100.00
48652;BME280;34442;52.362;-1.302;2023-07-02T05:04:40;99750.34;;;13.43;100.00
48652;BME280;34442;52.362;-1.302;2023-07-02T05:07:06;99755.97;;;13.41;100.00
48652;BME280;34442;52.362;-1.302;2023-07-02T05:09:31;99760.66;;;13.46;100.00
48652;BME280;34442;52.362;-1.302;2023-07-02T05:11:58;99750.44;;;13.48;100.00
48652;BME280;34442;52.362;-1.302;2023-07-02T05:14:23;99747.72;;;13.48;100.00
48652;BME280;34442;52.362;-1.302;2023-07-02T05:16:52;99747.63;;;13.43;100.00
48652;BME280;34442;52.362;-1.302;2023-07-02T05:19:17;99745.75;;;13.43;100.00
48652;BME280;34442;52.362;-1.302;2023-07-02T05:21:43;99748.84;;;13.35;100.00
48652;BME280;34442;52.362;-1.302;2023-07-02T05:24:11;99742.97;;;13.38;100.00
48652;BME280;34442;52.362;-1.302;2023-07-02T05:26:37;99741.41;;;13.42;100.00
48652;BME280;34442;52.362;-1.302;2023-07-02T05:29:02;99740.09;;;13.45;100.00
48652;BME280;34442;52.362;-1.302;2023-07-02T05:31:28;99740.22;;;13.50;100.00
48652;BME280;34442;52.362;-1.302;2023-07-02T05:33:54;99749.78;;;13.57;100.00
48652;BME280;34442;52.362;-1.302;2023-07-02T05:36:20;99751.19;;;13.60;100.00
48652;BME280;34442;52.362;-1.302;2023-07-02T05:38:46;99755.13;;;13.69;100.00
48652;BME280;34442;52.362;-1.302;2023-07-02T05:41:18;99755.22;;;13.74;100.00
48652;BME280;34442;52.362;-1.302;2023-07-02T05:43:44;99750.88;;;13.73;100.00
48652;BME280;34442;52.362;-1.302;2023-07-02T05:46:09;99760.16;;;13.77;100.00
48652;BME280;34442;52.362;-1.302;2023-07-02T05:48:35;99755.56;;;13.78;100.00
48652;BME280;34442;52.362;-1.302;2023-07-02T05:51:01;99761.13;;;13.71;100.00
48652;BME280;34442;52.362;-1.302;2023-07-02T05:53:30;99757.03;;;13.69;100.00
48652;BME280;34442;52.362;-1.302;2023-07-02T05:55:58;99752.69;;;13.68;100.00
48652;BME280;34442;52.362;-1.302;2023-07-02T05:58:28;99756.69;;;13.65;100.00
48652;BME280;34442;52.362;-1.302;2023-07-02T06:00:55;99768.16;;;13.72;100.00
48652;BME280;34442;52.362;-1.302;2023-07-02T06:03:21;99757.94;;;13.74;100.00
48652;BME280;34442;52.362;-1.302;2023-07-02T06:05:47;99760.81;;;13.84;100.00
48652;BME280;34442;52.362;-1.302;2023-07-02T06:08:15;99760.34;;;13.87;100.00
48652;BME280;34442;52.362;-1.302;2023-07-02T06:10:41;99758.78;;;13.92;100.00
48652;BME280;34442;52.362;-1.302;2023-07-02T06:13:07;99764.41;;;13.90;100.00
48652;BME280;34442;52.362;-1.302;2023-07-02T06:15:33;99772.31;;;14.08;100.00
48652;BME280;34442;52.362;-1.302;2023-07-02T06:18:00;99776.25;;;14.34;100.00
48652;BME280;34442;52.362;-1.302;2023-07-02T06:20:26;99772.50;;;14.52;100.00
48652;BME280;34442;52.362;-1.302;2023-07-02T06:22:52;99770.09;;;14.73;100.00
48652;BME280;34442;52.362;-1.302;2023-07-02T06:25:20;99776.31;;;14.90;100.00
48652;BME280;34442;52.362;-1.302;2023-07-02T06:27:46;99786.00;;;15.08;100.00
48652;BME280;34442;52.362;-1.302;2023-07-02T06:30:11;99780.91;;;15.33;100.00
48652;BME280;34442;52.362;-1.302;2023-07-02T06:32:37;99778.94;;;15.51;100.00
48652;BME280;34442;52.362;-1.302;2023-07-02T06:35:03;99783.75;;;15.66;100.00
48652;BME280;34442;52.362;-1.302;2023-07-02T06:37:31;99786.50;;;15.71;100.00
48652;BME280;34442;52.362;-1.302;2023-07-02T06:39:57;99787.31;;;15.71;100.00
48652;BME280;34442;52.362;-1.302;2023-07-02T06:42:24;99791.28;;;15.63;100.00
48652;BME280;34442;52.362;-1.302;2023-07-02T06:44:50;99789.84;;;15.56;100.00
48652;BME280;34442;52.362;-1.302;2023-07-02T06:47:15;99787.13;;;15.56;100.00
48652;BME280;34442;52.362;-1.302;2023-07-02T06:49:40;99785.78;;;15.58;100.00
48652;BME280;34442;52.362;-1.302;2023-07-02T06:52:06;99779.06;;;15.61;100.00
48652;BME280;34442;52.362;-1.302;2023-07-02T06:54:34;99780.47;;;15.63;100.00
48652;BME280;34442;52.362;-1.302;2023-07-02T06:57:00;99782.97;;;15.70;100.00
48652;BME280;34442;52.362;-1.302;2023-07-02T06:59:28;99786.31;;;15.77;100.00
48652;BME280;34442;52.362;-1.302;2023-07-02T07:01:54;99783.78;;;15.71;100.00
48652;BME280;34442;52.362;-1.302;2023-07-02T07:04:19;99777.00;;;15.68;100.00
48652;BME280;34442;52.362;-1.302;2023-07-02T07:06:45;99778.13;;;15.72;100.00
48652;BME280;34442;52.362;-1.302;2023-07-02T07:09:14;99777.22;;;15.88;100.00
48652;BME280;34442;52.362;-1.302;2023-07-02T07:11:40;99780.66;;;15.84;100.00
48652;BME280;34442;52.362;-1.302;2023-07-02T07:14:09;99780.78;;;15.94;100.00
48652;BME280;34442;52.362;-1.302;2023-07-02T07:16:34;99777.91;;;16.06;100.00
48652;BME280;34442;52.362;-1.302;2023-07-02T07:19:00;99781.06;;;15.93;100.00
48652;BME280;34442;52.362;-1.302;2023-07-02T07:21:26;99786.06;;;16.06;100.00
48652;BME280;34442;52.362;-1.302;2023-07-02T07:23:51;99784.97;;;16.07;100.00
48652;BME280;34442;52.362;-1.302;2023-07-02T07:26:17;99788.03;;;16.16;100.00
48652;BME280;34442;52.362;-1.302;2023-07-02T07:28:42;99791.25;;;16.12;100.00
48652;BME280;34442;52.362;-1.302;2023-07-02T07:31:08;99793.13;;;16.12;100.00
48652;BME280;34442;52.362;-1.302;2023-07-02T07:33:34;99792.31;;;16.11;100.00
48652;BME280;34442;52.362;-1.302;2023-07-02T07:36:00;99793.44;;;16.16;100.00
48652;BME280;34442;52.362;-1.302;2023-07-02T07:38:25;99790.50;;;16.17;100.00
48652;BME280;34442;52.362;-1.302;2023-07-02T07:40:51;99791.31;;;16.18;100.00
48652;BME280;34442;52.362;-1.302;2023-07-02T07:43:16;99789.16;;;16.20;100.00
48652;BME280;34442;52.362;-1.302;2023-07-02T07:45:42;99797.91;;;16.27;100.00
48652;BME280;34442;52.362;-1.302;2023-07-02T07:48:08;99801.72;;;16.31;100.00
48652;BME280;34442;52.362;-1.302;2023-07-02T07:50:33;99790.16;;;16.46;100.00
48652;BME280;34442;52.362;-1.302;2023-07-02T07:52:59;99797.25;;;16.47;100.00
48652;BME280;34442;52.362;-1.302;2023-07-02T07:55:24;99808.63;;;16.49;100.00
48652;BME280;34442;52.362;-1.302;2023-07-02T07:57:50;99808.09;;;16.47;100.00
48652;BME280;34442;52.362;-1.302;2023-07-02T08:00:16;99802.59;;;16.42;100.00
48652;BME280;34442;52.362;-1.302;2023-07-02T08:02:46;99801.88;;;16.51;100.00
48652;BME280;34442;52.362;-1.302;2023-07-02T08:05:15;99794.69;;;16.67;100.00
48652;BME280;34442;52.362;-1.302;2023-07-02T08:07:40;99807.13;;;16.63;100.00
48652;BME280;34442;52.362;-1.302;2023-07-02T08:10:06;99801.66;;;16.58;100.00
48652;BME280;34442;52.362;-1.302;2023-07-02T08:12:34;99806.84;;;16.65;100.00
48652;BME280;34442;52.362;-1.302;2023-07-02T08:14:59;99796.31;;;16.68;100.00
48652;BME280;34442;52.362;-1.302;2023-07-02T08:17:25;99791.81;;;16.79;100.00
48652;BME280;34442;52.362;-1.302;2023-07-02T08:19:50;99797.00;;;16.91;100.00
48652;BME280;34442;52.362;-1.302;2023-07-02T08:22:16;99789.16;;;16.94;100.00
48652;BME280;34442;52.362;-1.302;2023-07-02T08:24:42;99796.31;;;17.10;99.93
48652;BME280;34442;52.362;-1.302;2023-07-02T08:27:08;99797.41;;;17.09;98.82
48652;BME280;34442;52.362;-1.302;2023-07-02T08:29:35;99791.81;;;16.84;99.46
48652;BME280;34442;52.362;-1.302;2023-07-02T08:32:04;99796.31;;;16.68;99.78
48652;BME280;34442;52.362;-1.302;2023-07-02T08:34:29;99803.03;;;16.60;99.85
48652;BME280;34442;52.362;-1.302;2023-07-02T08:36:57;99797.56;;;16.55;99.53
48652;BME280;34442;52.362;-1.302;2023-07-02T08:39:23;99801.06;;;16.51;99.85
48652;BME280;34442;52.362;-1.302;2023-07-02T08:41:51;99796.44;;;16.46;98.39
48652;BME280;34442;52.362;-1.302;2023-07-02T08:44:20;99800.47;;;16.44;97.42
48652;BME280;34442;52.362;-1.302;2023-07-02T08:46:46;99802.34;;;16.38;97.20
48652;BME280;34442;52.362;-1.302;2023-07-02T08:49:16;99799.75;;;16.21;98.12
48652;BME280;34442;52.362;-1.302;2023-07-02T08:51:46;99798.25;;;16.08;97.81
48652;BME280;34442;52.362;-1.302;2023-07-02T08:54:12;99795.78;;;16.02;98.51
48652;BME280;34442;52.362;-1.302;2023-07-02T08:56:39;99809.84;;;15.99;97.91
48652;BME280;34442;52.362;-1.302;2023-07-02T08:59:08;99808.41;;;15.91;96.76
48652;BME280;34442;52.362;-1.302;2023-07-02T09:01:47;99816.16;;;15.82;95.39
48652;BME280;34442;52.362;-1.302;2023-07-02T09:04:24;99808.50;;;15.74;97.38
48652;BME280;34442;52.362;-1.302;2023-07-02T09:07:03;99817.34;;;15.65;98.30
48652;BME280;34442;52.362;-1.302;2023-07-02T09:09:29;99812.88;;;15.58;99.43
48652;BME280;34442;52.362;-1.302;2023-07-02T09:11:55;99814.69;;;15.48;100.00
48652;BME280;34442;52.362;-1.302;2023-07-02T09:14:27;99815.56;;;15.53;100.00
48652;BME280;34442;52.362;-1.302;2023-07-02T09:17:04;99809.88;;;15.55;100.00
48652;BME280;34442;52.362;-1.302;2023-07-02T09:19:31;99805.16;;;15.67;100.00
48652;BME280;34442;52.362;-1.302;2023-07-02T09:21:58;99809.94;;;15.82;99.61
48652;BME280;34442;52.362;-1.302;2023-07-02T09:24:28;99794.53;;;15.87;99.64
48652;BME280;34442;52.362;-1.302;2023-07-02T09:27:01;99796.69;;;15.85;98.93
48652;BME280;34442;52.362;-1.302;2023-07-02T09:29:32;99793.47;;;15.88;99.43
48652;BME280;34442;52.362;-1.302;2023-07-02T09:32:04;99796.75;;;15.91;99.91
48652;BME280;34442;52.362;-1.302;2023-07-02T09:34:35;99784.03;;;15.96;98.53
48652;BME280;34442;52.362;-1.302;2023-07-02T09:37:04;99791.13;;;15.97;97.72
48652;BME280;34442;52.362;-1.302;2023-07-02T09:39:34;99796.09;;;16.05;96.81
48652;BME280;34442;52.362;-1.302;2023-07-02T09:42:02;99798.88;;;16.16;96.12
48652;BME280;34442;52.362;-1.302;2023-07-02T09:44:38;99790.63;;;16.37;93.93
48652;BME280;34442;52.362;-1.302;2023-07-02T09:47:06;99798.13;;;16.57;94.67
48652;BME280;34442;52.362;-1.302;2023-07-02T09:49:36;99786.09;;;16.80;93.79
48652;BME280;34442;52.362;-1.302;2023-07-02T09:52:04;99782.28;;;16.76;93.67
48652;BME280;34442;52.362;-1.302;2023-07-02T09:54:30;99785.75;;;16.72;94.15
48652;BME280;34442;52.362;-1.302;2023-07-02T09:56:58;99779.69;;;16.59;94.40
48652;BME280;34442;52.362;-1.302;2023-07-02T09:59:23;99794.59;;;16.57;93.61
48652;BME280;34442;52.362;-1.302;2023-07-02T10:01:52;99791.56;;;16.53;93.38
48652;BME280;34442;52.362;-1.302;2023-07-02T10:04:21;99791.28;;;16.50;93.05
48652;BME280;34442;52.362;-1.302;2023-07-02T10:06:56;99780.97;;;16.47;92.07
48652;BME280;34442;52.362;-1.302;2023-07-02T10:09:39;99791.38;;;16.60;88.97
48652;BME280;34442;52.362;-1.302;2023-07-02T10:12:28;99783.13;;;16.82;89.19
48652;BME280;34442;52.362;-1.302;2023-07-02T10:14:59;99791.13;;;17.04;90.94
48652;BME280;34442;52.362;-1.302;2023-07-02T10:17:30;99797.41;;;17.15;89.19
48652;BME280;34442;52.362;-1.302;2023-07-02T10:19:59;99799.91;;;17.26;89.13
48652;BME280;34442;52.362;-1.302;2023-07-02T10:22:25;99790.81;;;17.58;88.91
48652;BME280;34442;52.362;-1.302;2023-07-02T10:24:55;99792.50;;;17.79;87.71
48652;BME280;34442;52.362;-1.302;2023-07-02T10:27:39;99790.13;;;18.03;84.84
48652;BME280;34442;52.362;-1.302;2023-07-02T10:30:13;99777.59;;;18.43;82.65
48652;BME280;34442;52.362;-1.302;2023-07-02T10:32:38;99789.59;;;18.27;84.89
48652;BME280;34442;52.362;-1.302;2023-07-02T10:35:14;99793.91;;;17.87;79.07
48652;BME280;34442;52.362;-1.302;2023-07-02T10:37:40;99785.91;;;17.55;86.46
48652;BME280;34442;52.362;-1.302;2023-07-02T10:40:07;99789.34;;;17.30;86.83
48652;BME280;34442;52.362;-1.302;2023-07-02T10:42:51;99790.06;;;17.15;82.75
48652;BME280;34442;52.362;-1.302;2023-07-02T10:45:33;99787.31;;;17.00;79.16
48652;BME280;34442;52.362;-1.302;2023-07-02T10:47:59;99782.47;;;17.12;85.22
48652;BME280;34442;52.362;-1.302;2023-07-02T10:50:26;99779.00;;;17.32;84.07
48652;BME280;34442;52.362;-1.302;2023-07-02T10:52:52;99783.16;;;17.45;83.25
48652;BME280;34442;52.362;-1.302;2023-07-02T10:55:21;99776.13;;;17.59;82.03
48652;BME280;34442;52.362;-1.302;2023-07-02T10:57:48;99778.84;;;17.59;80.98
48652;BME280;34442;52.362;-1.302;2023-07-02T11:00:16;99783.47;;;17.64;80.56
48652;BME280;34442;52.362;-1.302;2023-07-02T11:02:45;99775.06;;;17.70;77.01
48652;BME280;34442;52.362;-1.302;2023-07-02T11:05:11;99782.94;;;17.61;79.24
48652;BME280;34442;52.362;-1.302;2023-07-02T11:07:43;99784.56;;;17.63;78.90
48652;BME280;34442;52.362;-1.302;2023-07-02T11:10:10;99786.47;;;17.67;79.14
48652;BME280;34442;52.362;-1.302;2023-07-02T11:12:37;99790.81;;;17.63;79.40
48652;BME280;34442;52.362;-1.302;2023-07-02T11:15:15;99782.59;;;17.43;78.41
48652;BME280;34442;52.362;-1.302;2023-07-02T11:17:43;99786.06;;;17.28;79.69
48652;BME280;34442;52.362;-1.302;2023-07-02T11:20:12;99793.44;;;17.38;80.36
48652;BME280;34442;52.362;-1.302;2023-07-02T11:22:39;99789.13;;;17.52;79.80
48652;BME280;34442;52.362;-1.302;2023-07-02T11:25:18;99788.34;;;17.56;77.59
48652;BME280;34442;52.362;-1.302;2023-07-02T11:27:45;99790.00;;;17.68;79.10
48652;BME280;34442;52.362;-1.302;2023-07-02T11:30:11;99786.25;;;17.84;79.21
48652;BME280;34442;52.362;-1.302;2023-07-02T11:32:52;99791.47;;;17.91;73.79
48652;BME280;34442;52.362;-1.302;2023-07-02T11:35:18;99786.84;;;18.01;78.24
48652;BME280;34442;52.362;-1.302;2023-07-02T11:37:44;99784.94;;;18.17;77.61
48652;BME280;34442;52.362;-1.302;2023-07-02T11:40:12;99770.00;;;18.40;77.04
48652;BME280;34442;52.362;-1.302;2023-07-02T11:42:39;99777.56;;;18.69;76.63
48652;BME280;34442;52.362;-1.302;2023-07-02T11:45:05;99777.56;;;18.84;75.89
48652;BME280;34442;52.362;-1.302;2023-07-02T11:47:30;99774.06;;;18.73;76.00
48652;BME280;34442;52.362;-1.302;2023-07-02T11:49:56;99775.66;;;18.59;76.76
48652;BME280;34442;52.362;-1.302;2023-07-02T11:52:25;99786.03;;;18.37;77.70
48652;BME280;34442;52.362;-1.302;2023-07-02T11:54:50;99782.50;;;18.21;77.97
48652;BME280;34442;52.362;-1.302;2023-07-02T11:57:16;99775.44;;;18.20;77.66
48652;BME280;34442;52.362;-1.302;2023-07-02T11:59:42;99777.84;;;18.06;78.05
48652;BME280;34442;52.362;-1.302;2023-07-02T12:02:08;99771.59;;;17.95;78.34
48652;BME280;34442;52.362;-1.302;2023-07-02T12:04:34;99771.34;;;18.12;77.50
48652;BME280;34442;52.362;-1.302;2023-07-02T12:07:00;99765.38;;;18.35;76.01
48652;BME280;34442;52.362;-1.302;2023-07-02T12:09:29;99759.63;;;18.42;74.80
48652;BME280;34442;52.362;-1.302;2023-07-02T12:11:54;99764.22;;;18.62;73.80
48652;BME280;34442;52.362;-1.302;2023-07-02T12:14:20;99756.91;;;18.73;73.06
48652;BME280;34442;52.362;-1.302;2023-07-02T12:16:45;99747.88;;;18.88;72.68
48652;BME280;34442;52.362;-1.302;2023-07-02T12:19:14;99750.06;;;18.75;72.08
48652;BME280;34442;52.362;-1.302;2023-07-02T12:21:39;99752.00;;;18.70;71.84
48652;BME280;34442;52.362;-1.302;2023-07-02T12:24:05;99750.09;;;18.70;72.00
48652;BME280;34442;52.362;-1.302;2023-07-02T12:26:35;99755.53;;;18.55;72.25
48652;BME280;34442;52.362;-1.302;2023-07-02T12:29:01;99747.41;;;18.29;70.87
48652;BME280;34442;52.362;-1.302;2023-07-02T12:31:29;99752.56;;;18.16;70.03
48652;BME280;34442;52.362;-1.302;2023-07-02T12:33:55;99758.84;;;18.31;71.84
48652;BME280;34442;52.362;-1.302;2023-07-02T12:36:20;99747.94;;;18.42;70.87
48652;BME280;34442;52.362;-1.302;2023-07-02T12:38:48;99748.44;;;18.59;68.36
48652;BME280;34442;52.362;-1.302;2023-07-02T12:41:14;99750.09;;;18.80;69.14
48652;BME280;34442;52.362;-1.302;2023-07-02T12:43:39;99744.31;;;18.97;68.87
48652;BME280;34442;52.362;-1.302;2023-07-02T12:46:05;99748.38;;;19.00;68.44